• Join FlightAware (Why Join?)
  • Login
  • US Flag 
 
07:27PM EST


 

Airport Tracker/Info


-or-


 

Live Flight TrackerFlight Track Log ✈ N1455R ✈ 15-Sep-2013 ✈ KEWB - KMMU

Flight Track Log - Related Links

Times and Time Zones

All times are in EDT time to prevent confusion due to time zone crossing. See the N1455R flight status page for this flight to view local times or setup timezone preferences in your user account.

Time Position Orientation Groundspeed Altitude Reporting Facility
EDT Latitude Longitude Course Direction KTS MPH feet Rate Location/Type
02:08PM 41.6675 -70.9672 279° West 73 84 500  Level Boston Center
02:09PM 41.6700 -70.9894 279° West 91 105 1,300 780 Climbing Boston Center
02:09PM 41.6767 -71.0142 290° West 93 107 1,800 540 Climbing Boston Center
02:10PM 41.6833 -71.0475 285° West 101 116 2,300 480 Climbing Boston Center
02:12PM 41.6881 -71.0975 277° West 105 121 2,900 420 Climbing Boston Center
02:13PM 41.6925 -71.1333 279° West 98 113 3,400 480 Climbing Boston Center
02:13PM 41.6950 -71.1639 276° West 89 102 3,900 540 Climbing Boston Center
02:14PM 41.6994 -71.1944 281° West 88 101 4,500 540 Climbing Boston Center
02:15PM 41.7042 -71.2278 281° West 90 104 5,000 480 Climbing Boston Center
02:17PM 41.7064 -71.2639 275° West 90 104 5,600 480 Climbing Boston Center
02:18PM 41.7111 -71.3000 280° West 91 105 6,100 540 Climbing Boston Center
02:19PM 41.7136 -71.3333 276° West 90 104 6,800 540 Climbing Boston Center
02:20PM 41.7158 -71.3667 275° West 91 105 7,300 420 Climbing Boston Center
02:21PM 41.7183 -71.3944 277° West 91 105 7,600 360 Climbing Boston Center
02:22PM 41.7228 -71.4333 279° West 91 105 8,000 180 Climbing Boston Center
02:23PM 41.7189 -71.4750 263° West 120 138 8,000  Level Boston Center
02:24PM 41.7172 -71.5167 267° West 121 139 8,000  Level Boston Center
02:25PM 41.7133 -71.5697 264° West 122 140 8,000  Level Boston Center
02:26PM 41.7097 -71.6142 264° West 121 139 8,000  Level Boston Center
02:27PM 41.7058 -71.6558 263° West 123 142 8,000  Level Boston Center
02:28PM 41.7019 -71.7033 264° West 118 136 8,000  Level Boston Center
02:29PM 41.7000 -71.7478 267° West 122 140 8,000  Level Boston Center
02:30PM 41.6983 -71.8006 268° West 122 140 8,000  Level Boston Center
02:31PM 41.6944 -71.8478 264° West 123 142 8,000  Level Boston Center
02:32PM 41.6906 -71.8981 264° West 124 143 8,000  Level Boston Center
02:33PM 41.6864 -71.9314 261° West 123 142 8,000  Level Boston Center
02:34PM 41.6847 -71.9786 267° West 121 139 8,000  Level Boston Center
02:34PM 41.6825 -71.9897 255° West 122 140 8,000  Level Boston Center
02:35PM 41.6786 -72.0314 263° West 122 140 8,000  Level Boston Center
02:36PM 41.6786 -72.0703 270° West 124 143 8,000  Level Boston Center
02:37PM 41.6725 -72.1150 260° West 122 140 8,000  Level Boston Center
02:38PM 41.6706 -72.1594 267° West 123 142 8,000  Level Boston Center
02:39PM 41.6667 -72.2067 264° West 124 143 8,000  Level Boston Center
02:40PM 41.6625 -72.2539 263° West 123 142 8,000  Level Boston Center
02:41PM 41.6481 -72.2956 245° Southwest 124 143 8,000  Level Boston Center
02:42PM 41.6375 -72.3372 251° West 122 140 8,000  Level Boston Center
02:43PM 41.6250 -72.3817 249° West 122 140 8,000 -240 Level Boston Center
02:44PM 41.6106 -72.4289 248° West 132 152 7,600 -420 Descending Boston Center
02:45PM 41.6000 -72.4733 252° West 144 166 7,200 -540 Descending Boston Center
02:46PM 41.5814 -72.5428 250° West 148 170 6,500 -540 Descending Boston Center
02:47PM 41.5667 -72.5900 247° West 145 167 6,000 -300 Descending Boston Center
02:48PM 41.5542 -72.6314 248° West 133 153 6,000  Level Boston Center
02:49PM 41.5394 -72.6786 247° West 127 146 6,000  Level Boston Center
02:50PM 41.5289 -72.7231 252° West 127 146 6,000  Level Boston Center
02:52PM 41.5000 -72.8167 248° West 125 144 6,000  Level New York TRACON
02:53PM 41.4833 -72.8500 236° Southwest 133 153 6,000  Level New York TRACON
02:54PM 41.4833 -72.9000 270° West 132 152 6,000  Level New York TRACON
02:55PM 41.4667 -72.9500 246° West 126 145 6,000  Level New York TRACON
02:56PM 41.4333 -72.9667 201° Southwest 141 162 6,000  Level New York TRACON
02:57PM 41.4000 -72.9667 180° South 140 161 6,000  Level New York TRACON
02:58PM 41.3667 -72.9667 180° South 137 158 6,000  Level New York TRACON
02:59PM 41.3333 -72.9833 201° Southwest 122 140 6,000  Level New York TRACON
03:00PM 41.3333 -73.0167 270° West 106 122 6,000  Level New York TRACON
03:01PM 41.3167 -73.0667 246° West 108 124 6,000  Level New York TRACON
03:02PM 41.3167 -73.1000 270° West 103 119 6,000  Level New York TRACON
03:03PM 41.3167 -73.1500 270° West 104 120 6,000  Level New York TRACON
03:04PM 41.3167 -73.1833 270° West 103 119 6,000  Level New York TRACON
03:05PM 41.3167 -73.2167 270° West 103 119 6,000  Level New York TRACON
03:06PM 41.3000 -73.2500 236° Southwest 104 120 6,000  Level New York TRACON
03:07PM 41.3000 -73.3000 270° West 104 120 6,000  Level New York TRACON
03:08PM 41.3000 -73.3333 270° West 106 122 6,000  Level New York TRACON
03:09PM 41.3000 -73.3833 270° West 119 137 6,000  Level New York TRACON
03:10PM 41.3000 -73.4167 270° West 134 154 6,000  Level New York TRACON
03:12PM 41.2882 -73.4700 254° West  Level FlightAware Approximate
03:12PM 41.2833 -73.5167 254° West 135 155 6,000  Level New York TRACON
03:13PM 41.2833 -73.5667 270° West 128 147 6,000 -180 Level New York TRACON
03:14PM 41.2833 -73.6167 270° West 139 160 5,700 -420 Descending New York TRACON
03:15PM 41.2667 -73.6667 246° West 143 165 5,200 -240 Descending New York TRACON
03:17PM 41.2623 -73.7245 264° West  Level FlightAware Approximate
03:17PM 41.2667 -73.7667 264° West 124 143 5,000  Level New York TRACON
03:18PM 41.2667 -73.8167 270° West 129 148 5,000 -180 Level New York TRACON
03:19PM 41.2500 -73.8500 236° Southwest 127 146 4,700 -420 Descending New York TRACON
03:20PM 41.2500 -73.9000 270° West 148 170 4,200 -360 Descending New York TRACON
03:21PM 41.2500 -73.9500 270° West 136 157 4,000 -120 Descending New York TRACON
03:22PM 41.2333 -74.0000 246° West 130 150 4,000  Level New York TRACON
03:23PM 41.2333 -74.0500 270° West 133 153 4,000 -120 Level New York TRACON
03:24PM 41.2000 -74.0667 201° Southwest 146 168 3,800 -360 Descending New York TRACON
03:25PM 41.1667 -74.1000 217° Southwest 141 162 3,300 -540 Descending New York TRACON
03:26PM 41.1333 -74.1167 201° Southwest 152 175 2,800 -180 Descending New York TRACON
03:28PM 41.0667 -74.1667 209° Southwest 117 135 2,900 -60 Climbing New York TRACON
03:29PM 41.0333 -74.2000 217° Southwest 118 136 2,700 -480 Descending New York TRACON
03:30PM 41.0000 -74.2167 201° Southwest 139 160 2,000 -360 Descending New York TRACON
03:31PM 40.9833 -74.2333 217° Southwest 112 129 2,000  Level New York TRACON
03:32PM 40.9500 -74.2667 217° Southwest 116 133 2,000  Level New York TRACON
03:33PM 40.9333 -74.2833 217° Southwest 117 135 2,000  Level New York TRACON
03:34PM 40.9000 -74.3167 217° Southwest 119 137 2,000  Level New York TRACON
03:35PM 40.8833 -74.3333 217° Southwest 112 129 2,000 -300 Level New York TRACON
03:36PM 40.8500 -74.3667 217° Southwest 109 125 1,400 -480 Descending New York TRACON
03:37PM 40.8333 -74.3833 217° Southwest 103 119 1,100 -300 Descending New York TRACON
03:39PM 40.7882 -74.3984 194° South  Level FlightAware Approximate
03:46PM 40.7833 -74.4000 212° Southwest  Level FlightAware Approximate
03:47PM 40.7993 -74.4149 212° Southwest  Level Estimated
03:48PM 40.7993 -74.4149 212° Southwest  Level Estimated
03:49PM 40.7993 -74.4149 212° Southwest  Level Estimated